Time;durP1;ratioP1;P1;durP2;ratioP2;P2;SDS_P1;SDS_P2;PMS_P1;PMS_P2;Temp;Humidity;BMP_temperature;BMP_pressure;BME280_temperature;BME280_humidity;BME280_pressure;Samples;Min_cycle;Max_cycle;Signal;HPM_P1;HPM_P2
2021/03/23 00:01:13;;;;;;;;;;;18.70;37.60;;;;;;467613;252;1166;-45
2021/03/23 00:03:15;;;;;;;;;;;18.60;37.60;;;;;;468858;253;1051;-45
2021/03/23 00:05:16;;;;;;;;;;;18.60;37.70;;;;;;467046;252;1489;-45
2021/03/23 00:07:17;;;;;;;;;;;18.60;37.70;;;;;;467916;255;2200;-45
2021/03/23 00:09:19;;;;;;;;;;;18.70;37.70;;;;;;467793;252;1041;-45
2021/03/23 00:11:20;;;;;;;;;;;18.70;37.70;;;;;;468840;253;1169;-45
2021/03/23 00:13:21;;;;;;;;;;;18.60;37.80;;;;;;467229;253;1204;-45
2021/03/23 00:15:22;;;;;;;;;;;18.50;37.80;;;;;;467840;255;1118;-45
2021/03/23 00:17:24;;;;;;;;;;;18.50;37.80;;;;;;467747;252;1126;-45
2021/03/23 00:19:25;;;;;;;;;;;18.50;37.80;;;;;;468936;252;1092;-45
2021/03/23 00:21:26;;;;;;;;;;;18.50;37.80;;;;;;466962;251;1128;-45
2021/03/23 00:23:27;;;;;;;;;;;18.50;37.80;;;;;;468018;253;1150;-45
2021/03/23 00:25:29;;;;;;;;;;;18.50;37.80;;;;;;467879;252;1077;-45
2021/03/23 00:27:30;;;;;;;;;;;18.40;37.80;;;;;;468788;253;2216;-45
2021/03/23 00:29:31;;;;;;;;;;;18.40;37.90;;;;;;467052;254;1159;-45
2021/03/23 00:31:33;;;;;;;;;;;18.40;37.90;;;;;;467852;253;1185;-45
2021/03/23 00:33:34;;;;;;;;;;;18.40;37.90;;;;;;467863;254;1101;-45
2021/03/23 00:35:35;;;;;;;;;;;18.40;38.00;;;;;;467733;252;1071;-44
2021/03/23 00:37:36;;;;;;;;;;;18.40;37.90;;;;;;468850;252;1258;-45
2021/03/23 00:39:38;;;;;;;;;;;18.40;38.00;;;;;;467070;252;1139;-45
2021/03/23 00:41:39;;;;;;;;;;;18.30;37.90;;;;;;468042;250;1235;-45
2021/03/23 00:43:40;;;;;;;;;;;18.30;38.00;;;;;;469477;254;1114;-45
2021/03/23 00:45:42;;;;;;;;;;;18.30;38.00;;;;;;469867;253;1085;-45
2021/03/23 00:47:43;;;;;;;;;;;18.30;38.00;;;;;;467563;251;2141;-45
2021/03/23 00:49:44;;;;;;;;;;;18.30;38.00;;;;;;468887;253;1072;-45
2021/03/23 00:51:45;;;;;;;;;;;18.20;38.00;;;;;;467410;252;1285;-45
2021/03/23 00:53:47;;;;;;;;;;;18.20;38.00;;;;;;467929;253;1082;-46
2021/03/23 00:55:48;;;;;;;;;;;18.20;38.10;;;;;;467662;252;1027;-45
2021/03/23 00:57:49;;;;;;;;;;;18.20;38.10;;;;;;468937;252;1078;-44
2021/03/23 00:59:53;;;;;;;;;;;18.20;38.00;;;;;;467148;252;1208;-45
2021/03/23 01:01:54;;;;;;;;;;;18.20;38.00;;;;;;467845;253;1059;-45
2021/03/23 01:03:55;;;;;;;;;;;18.20;38.10;;;;;;467882;254;1112;-45
2021/03/23 01:05:57;;;;;;;;;;;18.10;38.10;;;;;;467871;252;1096;-45
2021/03/23 01:07:58;;;;;;;;;;;18.20;38.10;;;;;;469253;253;2164;-45
2021/03/23 01:09:59;;;;;;;;;;;18.20;38.10;;;;;;467111;253;1051;-45
2021/03/23 01:12:01;;;;;;;;;;;18.10;38.10;;;;;;468288;253;1170;-45
2021/03/23 01:14:02;;;;;;;;;;;18.20;38.10;;;;;;467811;252;1316;-45
2021/03/23 01:16:07;;;;;;;;;;;18.10;38.10;;;;;;468851;252;1426;-45
2021/03/23 01:18:05;;;;;;;;;;;18.10;38.10;;;;;;467082;252;2101;-45
2021/03/23 01:20:07;;;;;;;;;;;18.10;38.10;;;;;;467941;253;1082;-45
2021/03/23 01:22:08;;;;;;;;;;;18.10;38.10;;;;;;467980;253;1163;-45
2021/03/23 01:24:09;;;;;;;;;;;18.10;38.20;;;;;;468890;252;1084;-45
2021/03/23 01:26:10;;;;;;;;;;;18.10;38.20;;;;;;467011;253;1142;-45
2021/03/23 01:28:12;;;;;;;;;;;18.00;38.20;;;;;;468008;253;2213;-45
2021/03/23 01:30:13;;;;;;;;;;;18.00;38.20;;;;;;467898;254;1225;-45
2021/03/23 01:32:14;;;;;;;;;;;18.00;38.20;;;;;;467611;253;1051;-45
2021/03/23 01:34:15;;;;;;;;;;;18.00;38.20;;;;;;468897;252;1132;-45
2021/03/23 01:36:17;;;;;;;;;;;18.00;38.20;;;;;;467117;253;1071;-45
2021/03/23 01:38:18;;;;;;;;;;;18.10;38.10;;;;;;467927;253;1094;-45
2021/03/23 01:40:19;;;;;;;;;;;18.30;37.70;;;;;;468265;254;1058;-45
2021/03/23 01:42:21;;;;;;;;;;;18.70;37.00;;;;;;467868;252;1234;-45
2021/03/23 01:44:22;;;;;;;;;;;19.10;36.20;;;;;;469062;254;1112;-45
2021/03/23 01:46:23;;;;;;;;;;;19.40;35.70;;;;;;466991;252;999;-45
2021/03/23 01:48:24;;;;;;;;;;;19.50;35.30;;;;;;468255;253;2145;-45
2021/03/23 01:50:26;;;;;;;;;;;19.70;35.00;;;;;;467856;254;1078;-45
2021/03/23 01:52:27;;;;;;;;;;;19.80;34.70;;;;;;467814;254;1082;-45
2021/03/23 01:54:29;;;;;;;;;;;19.90;34.60;;;;;;467598;253;1049;-45
2021/03/23 01:56:30;;;;;;;;;;;20.00;34.40;;;;;;468945;252;1073;-45
2021/03/23 01:58:31;;;;;;;;;;;20.00;34.30;;;;;;467130;254;1011;-45
2021/03/23 02:00:32;;;;;;;;;;;20.10;34.20;;;;;;467918;253;1200;-45
2021/03/23 02:02:33;;;;;;;;;;;20.10;34.10;;;;;;468139;254;1050;-45
2021/03/23 02:04:35;;;;;;;;;;;20.20;34.10;;;;;;467895;252;1066;-45
2021/03/23 02:06:36;;;;;;;;;;;20.20;34.00;;;;;;468870;253;1358;-45
2021/03/23 02:08:37;;;;;;;;;;;20.30;33.90;;;;;;467060;252;2154;-45
2021/03/23 02:10:39;;;;;;;;;;;20.30;33.90;;;;;;468046;253;1143;-45
2021/03/23 02:12:40;;;;;;;;;;;20.30;33.80;;;;;;469286;254;1241;-45
2021/03/23 02:14:41;;;;;;;;;;;20.40;33.70;;;;;;469785;253;1161;-45
2021/03/23 02:16:42;;;;;;;;;;;20.40;33.70;;;;;;467700;252;1746;-45
2021/03/23 02:18:44;;;;;;;;;;;20.40;33.60;;;;;;469146;252;1077;-45
2021/03/23 02:20:45;;;;;;;;;;;20.50;33.60;;;;;;467151;252;1075;-45
2021/03/23 02:22:46;;;;;;;;;;;20.50;33.50;;;;;;467753;255;1511;-45
2021/03/23 02:24:48;;;;;;;;;;;20.50;33.50;;;;;;467902;254;1106;-45
2021/03/23 02:26:49;;;;;;;;;;;20.60;33.50;;;;;;469125;250;1435;-45
2021/03/23 02:28:52;;;;;;;;;;;20.60;33.40;;;;;;469649;254;2148;-45
2021/03/23 02:30:53;;;;;;;;;;;20.60;33.30;;;;;;467729;253;1185;-45
2021/03/23 02:32:55;;;;;;;;;;;20.60;33.30;;;;;;468850;253;1118;-45
2021/03/23 02:34:56;;;;;;;;;;;20.70;33.30;;;;;;467091;252;1096;-45
2021/03/23 02:36:57;;;;;;;;;;;20.70;33.30;;;;;;467948;255;1143;-45
2021/03/23 02:38:59;;;;;;;;;;;20.70;33.30;;;;;;467638;252;1084;-45
2021/03/23 02:41:00;;;;;;;;;;;20.70;33.20;;;;;;468963;253;1221;-45
2021/03/23 02:43:01;;;;;;;;;;;20.70;33.20;;;;;;467071;253;1072;-45
2021/03/23 02:45:02;;;;;;;;;;;20.70;33.20;;;;;;468011;253;1163;-45
2021/03/23 02:47:04;;;;;;;;;;;20.80;33.20;;;;;;467894;254;1121;-45
2021/03/23 02:49:05;;;;;;;;;;;20.80;33.10;;;;;;467918;252;2180;-45
2021/03/23 02:51:06;;;;;;;;;;;20.80;33.10;;;;;;468918;253;1006;-45
2021/03/23 02:53:07;;;;;;;;;;;20.80;33.10;;;;;;467092;253;1005;-45
2021/03/23 02:55:09;;;;;;;;;;;20.90;33.10;;;;;;467875;253;1099;-45
2021/03/23 02:57:10;;;;;;;;;;;20.90;33.00;;;;;;467696;253;1074;-45
2021/03/23 02:59:11;;;;;;;;;;;20.90;33.00;;;;;;469011;252;1024;-45
2021/03/23 03:01:13;;;;;;;;;;;20.90;33.00;;;;;;467119;253;1181;-45
2021/03/23 03:03:14;;;;;;;;;;;20.90;33.00;;;;;;468037;253;1255;-45
2021/03/23 03:05:15;;;;;;;;;;;20.90;32.90;;;;;;467749;253;987;-45
2021/03/23 03:07:16;;;;;;;;;;;21.00;33.00;;;;;;468887;253;1105;-45
2021/03/23 03:09:18;;;;;;;;;;;21.00;32.90;;;;;;467254;253;2121;-45
2021/03/23 03:11:19;;;;;;;;;;;21.00;32.90;;;;;;467566;251;1224;-45
2021/03/23 03:13:22;;;;;;;;;;;21.00;32.90;;;;;;467561;253;1240;-45
2021/03/23 03:15:22;;;;;;;;;;;21.00;32.90;;;;;;468947;253;2213;-45
2021/03/23 03:17:23;;;;;;;;;;;21.00;32.90;;;;;;467010;253;1206;-45
2021/03/23 03:19:24;;;;;;;;;;;21.00;32.80;;;;;;467891;253;1074;-45
2021/03/23 03:21:25;;;;;;;;;;;21.00;32.80;;;;;;467528;253;1109;-45
2021/03/23 03:23:27;;;;;;;;;;;21.00;32.80;;;;;;469121;252;1119;-45
2021/03/23 03:25:28;;;;;;;;;;;21.10;32.80;;;;;;467239;252;1071;-45
2021/03/23 03:27:29;;;;;;;;;;;21.10;32.80;;;;;;467798;253;2152;-45
2021/03/23 03:29:31;;;;;;;;;;;21.10;32.80;;;;;;468002;254;1074;-45
2021/03/23 03:31:32;;;;;;;;;;;21.10;32.80;;;;;;467685;252;1284;-45
2021/03/23 03:33:33;;;;;;;;;;;21.10;32.80;;;;;;469010;253;1051;-45
2021/03/23 03:35:34;;;;;;;;;;;21.10;32.80;;;;;;467057;252;1238;-45
2021/03/23 03:37:36;;;;;;;;;;;21.10;32.80;;;;;;467972;253;1035;-45
2021/03/23 03:39:37;;;;;;;;;;;21.10;32.80;;;;;;467636;252;1098;-45
2021/03/23 03:41:38;;;;;;;;;;;21.10;32.80;;;;;;468922;253;1181;-45
2021/03/23 03:43:39;;;;;;;;;;;21.10;32.80;;;;;;467125;254;1039;-45
2021/03/23 03:45:41;;;;;;;;;;;21.20;32.80;;;;;;467833;253;1199;-45
2021/03/23 03:47:42;;;;;;;;;;;21.10;32.70;;;;;;467695;252;2195;-45
2021/03/23 03:49:43;;;;;;;;;;;21.10;32.70;;;;;;468943;253;1142;-45
2021/03/23 03:51:44;;;;;;;;;;;21.10;32.70;;;;;;467102;253;1193;-45
2021/03/23 03:53:46;;;;;;;;;;;21.20;32.80;;;;;;467911;253;1104;-45
2021/03/23 03:55:47;;;;;;;;;;;21.20;32.80;;;;;;467975;254;1059;-45
2021/03/23 03:57:48;;;;;;;;;;;21.20;32.80;;;;;;467677;252;1187;-45
2021/03/23 03:59:50;;;;;;;;;;;21.20;32.70;;;;;;468863;252;1109;-45
2021/03/23 04:01:51;;;;;;;;;;;21.20;32.70;;;;;;467020;252;1184;-45
2021/03/23 04:03:52;;;;;;;;;;;21.20;32.70;;;;;;467997;253;1063;-45
2021/03/23 04:05:54;;;;;;;;;;;21.20;32.70;;;;;;467982;254;1095;-45
2021/03/23 04:07:55;;;;;;;;;;;21.20;32.70;;;;;;469281;254;2157;-45
2021/03/23 04:09:56;;;;;;;;;;;21.20;32.70;;;;;;469596;254;1035;-45
2021/03/23 04:11:58;;;;;;;;;;;21.20;32.60;;;;;;467947;254;1356;-45
2021/03/23 04:13:59;;;;;;;;;;;21.30;32.70;;;;;;469254;254;1027;-45
2021/03/23 04:16:00;;;;;;;;;;;21.30;32.70;;;;;;469562;254;1347;-45
2021/03/23 04:18:02;;;;;;;;;;;21.20;32.60;;;;;;467594;253;1156;-45
2021/03/23 04:20:03;;;;;;;;;;;21.30;32.70;;;;;;469044;252;1101;-45
2021/03/23 04:22:04;;;;;;;;;;;21.20;32.70;;;;;;466995;252;1334;-45
2021/03/23 04:24:05;;;;;;;;;;;21.20;32.70;;;;;;468284;253;1089;-45
2021/03/23 04:26:07;;;;;;;;;;;21.20;32.70;;;;;;467845;254;1105;-45
2021/03/23 04:28:08;;;;;;;;;;;21.20;32.70;;;;;;467677;252;2149;-45
2021/03/23 04:30:09;;;;;;;;;;;21.20;32.70;;;;;;468981;253;1052;-45
2021/03/23 04:32:10;;;;;;;;;;;21.20;32.70;;;;;;467098;252;1323;-45
2021/03/23 04:34:12;;;;;;;;;;;21.30;32.70;;;;;;467671;255;1113;-45
2021/03/23 04:36:13;;;;;;;;;;;21.30;32.70;;;;;;467565;252;1058;-45
2021/03/23 04:38:14;;;;;;;;;;;21.30;32.70;;;;;;468859;253;1114;-45
2021/03/23 04:40:16;;;;;;;;;;;21.30;32.70;;;;;;467309;252;1030;-46
2021/03/23 04:42:17;;;;;;;;;;;21.30;32.70;;;;;;467941;253;1090;-45
2021/03/23 04:44:18;;;;;;;;;;;21.30;32.60;;;;;;467574;253;1052;-45
2021/03/23 04:46:20;;;;;;;;;;;21.30;32.60;;;;;;469033;252;1165;-45
2021/03/23 04:48:21;;;;;;;;;;;21.30;32.60;;;;;;467093;252;2145;-45
2021/03/23 04:50:22;;;;;;;;;;;21.30;32.60;;;;;;467924;255;1064;-45
2021/03/23 04:52:23;;;;;;;;;;;21.40;32.60;;;;;;469132;254;1077;-45
2021/03/23 04:54:25;;;;;;;;;;;21.40;32.60;;;;;;469623;254;1028;-45
2021/03/23 04:56:26;;;;;;;;;;;21.40;32.60;;;;;;467609;252;1193;-45
2021/03/23 04:58:27;;;;;;;;;;;21.40;32.60;;;;;;468843;253;1103;-45
2021/03/23 05:00:28;;;;;;;;;;;21.40;32.60;;;;;;467290;252;1161;-45
2021/03/23 05:02:30;;;;;;;;;;;21.40;32.60;;;;;;467833;253;1213;-45
2021/03/23 05:04:31;;;;;;;;;;;21.40;32.50;;;;;;469303;254;1124;-45
2021/03/23 05:06:32;;;;;;;;;;;21.40;32.50;;;;;;469696;250;1250;-45
2021/03/23 05:08:34;;;;;;;;;;;21.50;32.60;;;;;;467737;253;2149;-45
2021/03/23 05:10:35;;;;;;;;;;;21.40;32.50;;;;;;468876;252;1143;-45
2021/03/23 05:12:36;;;;;;;;;;;21.40;32.50;;;;;;466979;254;1135;-45
2021/03/23 05:14:38;;;;;;;;;;;21.40;32.50;;;;;;467860;253;1113;-45
2021/03/23 05:16:39;;;;;;;;;;;21.40;32.50;;;;;;467647;252;1145;-45
2021/03/23 05:18:40;;;;;;;;;;;21.40;32.50;;;;;;468830;253;1548;-45
2021/03/23 05:20:42;;;;;;;;;;;21.50;32.60;;;;;;467089;253;1131;-45
2021/03/23 05:22:43;;;;;;;;;;;21.40;32.50;;;;;;467913;253;1231;-45
2021/03/23 05:24:44;;;;;;;;;;;21.50;32.60;;;;;;467822;254;1081;-45
2021/03/23 05:26:46;;;;;;;;;;;21.40;32.50;;;;;;467594;254;1389;-46
2021/03/23 05:28:47;;;;;;;;;;;21.50;32.60;;;;;;467804;254;2220;-45
2021/03/23 05:30:48;;;;;;;;;;;21.50;32.60;;;;;;469033;254;1046;-45
2021/03/23 05:32:50;;;;;;;;;;;21.50;32.50;;;;;;469404;253;1128;-45
2021/03/23 05:34:51;;;;;;;;;;;21.50;32.50;;;;;;467840;254;1219;-45
2021/03/23 05:36:52;;;;;;;;;;;21.50;32.50;;;;;;467455;254;1504;-45
2021/03/23 05:38:54;;;;;;;;;;;21.50;32.50;;;;;;467472;253;1047;-45
2021/03/23 05:40:55;;;;;;;;;;;21.50;32.50;;;;;;468738;253;1062;-45
2021/03/23 05:42:56;;;;;;;;;;;21.50;32.60;;;;;;466978;252;1192;-45
2021/03/23 05:44:57;;;;;;;;;;;21.50;32.60;;;;;;467592;253;1243;-45
2021/03/23 05:46:59;;;;;;;;;;;21.50;32.60;;;;;;467654;254;1506;-45
2021/03/23 05:49:00;;;;;;;;;;;21.50;32.50;;;;;;467435;252;2153;-45
2021/03/23 05:51:01;;;;;;;;;;;21.50;32.50;;;;;;468583;252;1253;-45
2021/03/23 05:53:03;;;;;;;;;;;21.50;32.60;;;;;;466755;254;1075;-45
2021/03/23 05:55:04;;;;;;;;;;;21.50;32.50;;;;;;467636;253;1101;-45
2021/03/23 05:57:05;;;;;;;;;;;21.50;32.60;;;;;;467661;254;1250;-45
2021/03/23 05:59:06;;;;;;;;;;;21.50;32.60;;;;;;467342;253;1093;-45
2021/03/23 06:01:08;;;;;;;;;;;21.50;32.60;;;;;;468732;252;1323;-45
2021/03/23 06:03:09;;;;;;;;;;;21.50;32.50;;;;;;466798;254;1220;-45
2021/03/23 06:05:10;;;;;;;;;;;21.50;32.60;;;;;;467573;255;1063;-45
2021/03/23 06:07:11;;;;;;;;;;;21.50;32.60;;;;;;467565;254;1313;-45
2021/03/23 06:09:13;;;;;;;;;;;21.50;32.50;;;;;;467218;252;2532;-45
2021/03/23 06:11:14;;;;;;;;;;;21.50;32.60;;;;;;468548;253;1328;-45
2021/03/23 06:13:15;;;;;;;;;;;21.50;32.60;;;;;;466831;252;1192;-45
2021/03/23 06:15:16;;;;;;;;;;;21.50;32.60;;;;;;467790;253;1125;-46
2021/03/23 06:17:18;;;;;;;;;;;21.50;32.60;;;;;;467264;253;1572;-45
2021/03/23 06:19:19;;;;;;;;;;;21.50;32.60;;;;;;468760;253;1081;-45
2021/03/23 06:21:20;;;;;;;;;;;21.50;32.60;;;;;;466750;252;1334;-45
2021/03/23 06:23:22;;;;;;;;;;;21.50;32.60;;;;;;467582;253;1216;-45
2021/03/23 06:25:23;;;;;;;;;;;21.50;32.60;;;;;;467640;254;1137;-45
2021/03/23 06:27:24;;;;;;;;;;;21.60;32.60;;;;;;467681;254;1171;-45
2021/03/23 06:29:25;;;;;;;;;;;21.50;32.50;;;;;;467437;252;2189;-45
2021/03/23 06:31:27;;;;;;;;;;;21.50;32.60;;;;;;468579;252;1065;-46
2021/03/23 06:33:28;;;;;;;;;;;21.50;32.60;;;;;;466802;252;1225;-45
2021/03/23 06:35:29;;;;;;;;;;;21.50;32.60;;;;;;467610;253;1069;-46
2021/03/23 06:37:31;;;;;;;;;;;21.50;32.60;;;;;;467565;254;1070;-45
2021/03/23 06:39:32;;;;;;;;;;;21.50;32.60;;;;;;467285;252;1115;-45
2021/03/23 06:41:34;;;;;;;;;;;21.50;32.60;;;;;;468492;252;1225;-45
2021/03/23 06:43:35;;;;;;;;;;;21.50;32.50;;;;;;466549;254;1294;-45
2021/03/23 06:45:36;;;;;;;;;;;21.50;32.60;;;;;;467280;255;1157;-45
2021/03/23 06:47:38;;;;;;;;;;;21.50;32.60;;;;;;467043;253;1154;-45
2021/03/23 06:49:39;;;;;;;;;;;21.60;32.60;;;;;;468516;253;2149;-45
2021/03/23 06:51:40;;;;;;;;;;;21.60;32.50;;;;;;466685;252;1201;-45
2021/03/23 06:53:41;;;;;;;;;;;21.60;32.50;;;;;;467610;253;1180;-45
2021/03/23 06:55:45;;;;;;;;;;;21.60;32.60;;;;;;467483;254;1248;-45
2021/03/23 06:57:44;;;;;;;;;;;21.60;32.60;;;;;;467425;254;2450;-45
2021/03/23 06:59:45;;;;;;;;;;;21.60;32.60;;;;;;467358;254;1038;-45
2021/03/23 07:01:46;;;;;;;;;;;21.50;32.60;;;;;;467327;254;1252;-45
2021/03/23 07:03:48;;;;;;;;;;;21.60;32.60;;;;;;468864;254;1188;-45
2021/03/23 07:05:49;;;;;;;;;;;21.60;32.50;;;;;;469205;254;1101;-45
2021/03/23 07:07:51;;;;;;;;;;;21.60;32.50;;;;;;467045;253;1220;-45
2021/03/23 07:09:52;;;;;;;;;;;21.60;32.50;;;;;;468280;253;2219;-45
2021/03/23 07:11:54;;;;;;;;;;;21.60;32.50;;;;;;466489;254;1242;-45
2021/03/23 07:13:55;;;;;;;;;;;21.60;32.50;;;;;;467329;255;1110;-45
2021/03/23 07:15:56;;;;;;;;;;;21.60;32.50;;;;;;466967;253;1291;-45
2021/03/23 07:17:57;;;;;;;;;;;21.60;32.50;;;;;;468281;253;1170;-45
2021/03/23 07:19:59;;;;;;;;;;;21.60;32.60;;;;;;466548;254;1119;-46
2021/03/23 07:22:00;;;;;;;;;;;21.60;32.60;;;;;;467235;253;1475;-45
2021/03/23 07:24:01;;;;;;;;;;;21.60;32.60;;;;;;467094;254;1293;-45
2021/03/23 07:26:02;;;;;;;;;;;21.60;32.60;;;;;;467126;253;1196;-45
2021/03/23 07:28:04;;;;;;;;;;;21.60;32.60;;;;;;468469;252;1174;-45
2021/03/23 07:30:05;;;;;;;;;;;21.60;32.50;;;;;;466515;252;2158;-45
2021/03/23 07:32:06;;;;;;;;;;;21.60;32.50;;;;;;467316;253;1318;-45
2021/03/23 07:34:07;;;;;;;;;;;21.70;32.60;;;;;;467153;254;1274;-45
2021/03/23 07:36:09;;;;;;;;;;;21.60;32.60;;;;;;467107;254;1196;-45
2021/03/23 07:38:10;;;;;;;;;;;21.60;32.50;;;;;;466995;253;1096;-45
2021/03/23 07:40:11;;;;;;;;;;;21.60;32.50;;;;;;468317;253;1115;-45
2021/03/23 07:42:13;;;;;;;;;;;21.60;32.50;;;;;;466512;254;1137;-46
2021/03/23 07:44:14;;;;;;;;;;;21.60;32.50;;;;;;467137;253;1108;-45
2021/03/23 07:46:16;;;;;;;;;;;21.60;32.50;;;;;;466894;252;1096;-45
2021/03/23 07:48:17;;;;;;;;;;;21.60;32.50;;;;;;468234;253;1327;-45
2021/03/23 07:50:18;;;;;;;;;;;21.60;32.50;;;;;;466427;253;2144;-45
2021/03/23 07:52:19;;;;;;;;;;;21.70;32.50;;;;;;467343;255;1114;-45
2021/03/23 07:54:21;;;;;;;;;;;21.60;32.50;;;;;;467278;254;1091;-45
2021/03/23 07:56:22;;;;;;;;;;;21.60;32.50;;;;;;467171;254;1171;-46
2021/03/23 07:58:24;;;;;;;;;;;21.70;32.40;;;;;;466828;254;1216;-45
2021/03/23 08:00:25;;;;;;;;;;;21.70;32.50;;;;;;467019;254;1118;-45
2021/03/23 08:02:26;;;;;;;;;;;21.70;32.50;;;;;;467006;254;1246;-45
2021/03/23 08:04:27;;;;;;;;;;;21.70;32.50;;;;;;466765;253;1190;-45
2021/03/23 08:06:29;;;;;;;;;;;21.70;32.50;;;;;;468050;252;1211;-45
2021/03/23 08:08:30;;;;;;;;;;;21.70;32.40;;;;;;466127;253;1233;-45
2021/03/23 08:10:31;;;;;;;;;;;21.70;32.40;;;;;;466804;253;2188;-45
2021/03/23 08:12:32;;;;;;;;;;;21.70;32.40;;;;;;466598;254;1244;-45
2021/03/23 08:14:34;;;;;;;;;;;21.70;32.40;;;;;;467993;253;1130;-45
2021/03/23 08:16:35;;;;;;;;;;;21.70;32.50;;;;;;466202;252;1329;-45
2021/03/23 08:18:36;;;;;;;;;;;21.70;32.40;;;;;;466980;253;1088;-45
2021/03/23 08:20:38;;;;;;;;;;;21.70;32.40;;;;;;466767;254;2361;-45
2021/03/23 08:22:39;;;;;;;;;;;21.70;32.50;;;;;;466517;252;1274;-45
2021/03/23 08:24:40;;;;;;;;;;;21.70;32.50;;;;;;467923;252;1243;-45
2021/03/23 08:26:41;;;;;;;;;;;21.70;32.50;;;;;;466232;252;1209;-45
2021/03/23 08:28:47;;;;;;;;;;;21.70;32.40;;;;;;467185;255;897;-45
2021/03/23 08:30:44;;;;;;;;;;;21.70;32.40;;;;;;464185;255;2209;-45
2021/03/23 08:32:46;;;;;;;;;;;21.70;32.40;;;;;;467728;252;1140;-45
2021/03/23 08:34:46;;;;;;;;;;;21.70;32.40;;;;;;469341;254;1380;-45
2021/03/23 08:36:48;;;;;;;;;;;21.70;32.40;;;;;;467095;254;1188;-45
2021/03/23 08:38:49;;;;;;;;;;;21.70;32.30;;;;;;468875;253;897;-45
2021/03/23 08:40:52;;;;;;;;;;;21.80;32.30;;;;;;466908;248;1281;-45
2021/03/23 08:42:52;;;;;;;;;;;21.70;32.30;;;;;;467156;253;1350;-45
2021/03/23 08:44:53;;;;;;;;;;;21.70;32.30;;;;;;466428;254;1290;-46
2021/03/23 08:46:54;;;;;;;;;;;21.70;32.40;;;;;;466477;254;1216;-45
2021/03/23 08:48:56;;;;;;;;;;;21.70;32.40;;;;;;468123;253;1143;-45
2021/03/23 08:50:57;;;;;;;;;;;21.70;32.30;;;;;;466328;252;2156;-45
2021/03/23 08:52:58;;;;;;;;;;;21.80;32.30;;;;;;467114;253;1149;-45
2021/03/23 08:54:59;;;;;;;;;;;21.80;32.30;;;;;;467068;254;1307;-45
2021/03/23 08:57:01;;;;;;;;;;;21.80;32.30;;;;;;466896;252;1261;-45
2021/03/23 08:59:02;;;;;;;;;;;21.80;32.30;;;;;;468085;252;1142;-45
2021/03/23 09:01:03;;;;;;;;;;;21.70;32.30;;;;;;466297;253;1217;-45
2021/03/23 09:03:04;;;;;;;;;;;21.70;32.30;;;;;;467215;253;1082;-45
2021/03/23 09:05:06;;;;;;;;;;;21.70;32.30;;;;;;466729;254;1224;-45
2021/03/23 09:07:07;;;;;;;;;;;21.80;32.30;;;;;;468249;253;1313;-45
2021/03/23 09:09:08;;;;;;;;;;;21.70;32.30;;;;;;466331;252;1344;-45
2021/03/23 09:11:10;;;;;;;;;;;21.70;32.30;;;;;;467031;255;2133;-45
2021/03/23 09:13:11;;;;;;;;;;;21.70;32.30;;;;;;466769;254;1101;-45
2021/03/23 09:15:16;;;;;;;;;;;21.80;32.30;;;;;;467587;252;1245;-45
2021/03/23 09:17:16;;;;;;;;;;;21.70;32.30;;;;;;465370;253;1966;-45
2021/03/23 09:19:17;;;;;;;;;;;21.80;32.30;;;;;;466914;255;1130;-45
2021/03/23 09:21:18;;;;;;;;;;;21.80;32.30;;;;;;466903;254;1215;-45
2021/03/23 09:23:20;;;;;;;;;;;21.80;32.30;;;;;;466522;252;1431;-45
2021/03/23 09:25:21;;;;;;;;;;;21.80;32.30;;;;;;467886;253;1208;-45
2021/03/23 09:27:22;;;;;;;;;;;21.80;32.30;;;;;;465972;255;1288;-45
2021/03/23 09:29:23;;;;;;;;;;;21.80;32.30;;;;;;466910;253;1156;-45
2021/03/23 09:31:24;;;;;;;;;;;21.80;32.30;;;;;;466957;254;2196;-45
2021/03/23 09:33:26;;;;;;;;;;;21.80;32.30;;;;;;466678;252;1140;-45
2021/03/23 09:35:27;;;;;;;;;;;21.80;32.30;;;;;;467840;253;1259;-45
2021/03/23 09:37:28;;;;;;;;;;;21.80;32.20;;;;;;466030;254;1246;-45
2021/03/23 09:39:30;;;;;;;;;;;21.80;32.30;;;;;;466852;253;1089;-45
2021/03/23 09:41:35;;;;;;;;;;;21.80;32.30;;;;;;468164;254;1356;-45
2021/03/23 09:43:35;;;;;;;;;;;21.80;32.20;;;;;;468630;253;1484;-45
2021/03/23 09:45:37;;;;;;;;;;;21.80;32.20;;;;;;467290;254;1965;-45
2021/03/23 09:47:37;;;;;;;;;;;21.80;32.20;;;;;;467787;254;2056;-45
2021/03/23 09:49:38;;;;;;;;;;;21.80;32.20;;;;;;467502;253;2197;-45
2021/03/23 09:51:39;;;;;;;;;;;21.80;32.20;;;;;;468325;253;1684;-45
2021/03/23 09:53:42;;;;;;;;;;;21.80;32.20;;;;;;466939;253;1233;-45
2021/03/23 09:55:42;;;;;;;;;;;21.90;32.20;;;;;;467853;253;1656;-45
2021/03/23 09:57:43;;;;;;;;;;;21.90;32.20;;;;;;467595;252;1173;-45
2021/03/23 09:59:45;;;;;;;;;;;21.90;32.20;;;;;;468829;253;867;-45
2021/03/23 10:01:46;;;;;;;;;;;21.80;32.10;;;;;;466583;253;1387;-45
2021/03/23 10:03:47;;;;;;;;;;;21.90;32.20;;;;;;467802;253;860;-45
2021/03/23 10:05:48;;;;;;;;;;;21.90;32.20;;;;;;467374;253;1101;-45
2021/03/23 10:07:50;;;;;;;;;;;21.90;32.20;;;;;;468808;253;876;-45
2021/03/23 10:09:51;;;;;;;;;;;21.80;32.20;;;;;;466882;252;2205;-45
2021/03/23 10:11:52;;;;;;;;;;;21.90;32.20;;;;;;467772;253;1061;-45
2021/03/23 10:13:55;;;;;;;;;;;21.90;32.10;;;;;;467823;254;1210;-45
2021/03/23 10:15:55;;;;;;;;;;;21.90;32.20;;;;;;467315;254;1397;-45
2021/03/23 10:17:56;;;;;;;;;;;21.90;32.20;;;;;;467168;253;1053;-45
2021/03/23 10:19:58;;;;;;;;;;;21.90;32.20;;;;;;468422;253;1185;-45
2021/03/23 10:21:59;;;;;;;;;;;21.90;32.10;;;;;;466570;252;1097;-45
2021/03/23 10:24:00;;;;;;;;;;;21.90;32.10;;;;;;467789;253;1031;-45
2021/03/23 10:26:01;;;;;;;;;;;21.90;32.20;;;;;;467074;253;1319;-45
2021/03/23 10:28:03;;;;;;;;;;;21.80;32.20;;;;;;468473;252;978;-45
2021/03/23 10:30:04;;;;;;;;;;;21.80;32.20;;;;;;466795;252;2213;-45
2021/03/23 10:32:06;;;;;;;;;;;21.90;32.20;;;;;;467713;253;938;-45
2021/03/23 10:34:07;;;;;;;;;;;21.80;32.10;;;;;;469117;254;1056;-45
2021/03/23 10:36:08;;;;;;;;;;;21.90;32.20;;;;;;469019;254;1067;-45
2021/03/23 10:38:09;;;;;;;;;;;21.90;32.20;;;;;;467228;253;859;-45
2021/03/23 10:40:10;;;;;;;;;;;21.80;32.20;;;;;;468014;252;895;-45
2021/03/23 10:42:12;;;;;;;;;;;21.90;32.20;;;;;;466229;254;1034;-45
2021/03/23 10:44:13;;;;;;;;;;;21.90;32.20;;;;;;467583;253;894;-45
2021/03/23 10:46:14;;;;;;;;;;;21.90;32.20;;;;;;467484;252;1177;-45
2021/03/23 10:48:16;;;;;;;;;;;21.90;32.20;;;;;;468838;253;864;-45
2021/03/23 10:50:17;;;;;;;;;;;21.90;32.20;;;;;;466472;252;2197;-45
2021/03/23 10:52:18;;;;;;;;;;;21.90;32.10;;;;;;467266;253;1205;-45
2021/03/23 10:54:19;;;;;;;;;;;21.90;32.20;;;;;;466980;254;1066;-45
2021/03/23 10:56:21;;;;;;;;;;;21.90;32.10;;;;;;466703;253;1213;-45
2021/03/23 10:58:22;;;;;;;;;;;21.90;32.10;;;;;;467942;253;1114;-45
2021/03/23 11:00:23;;;;;;;;;;;21.90;32.10;;;;;;466106;252;1228;-45
2021/03/23 11:02:24;;;;;;;;;;;21.90;32.10;;;;;;466965;253;1269;-45
2021/03/23 11:04:26;;;;;;;;;;;21.90;32.10;;;;;;466544;252;1104;-45
2021/03/23 11:06:28;;;;;;;;;;;21.80;32.10;;;;;;467754;253;1305;-45
2021/03/23 11:08:29;;;;;;;;;;;21.90;32.20;;;;;;466059;253;1209;-46
2021/03/23 11:10:30;;;;;;;;;;;21.80;32.10;;;;;;466920;255;2212;-45
2021/03/23 11:12:31;;;;;;;;;;;21.90;32.20;;;;;;467067;249;1225;-45
2021/03/23 11:14:32;;;;;;;;;;;21.90;32.20;;;;;;468067;253;1297;-45
2021/03/23 11:16:34;;;;;;;;;;;21.90;32.20;;;;;;466115;254;1163;-45
2021/03/23 11:18:38;;;;;;;;;;;21.90;32.20;;;;;;466971;253;1258;-45
2021/03/23 11:20:37;;;;;;;;;;;21.90;32.20;;;;;;466855;254;2037;-45
2021/03/23 11:22:38;;;;;;;;;;;21.80;32.20;;;;;;466818;254;1928;-45
2021/03/23 11:24:39;;;;;;;;;;;22.00;32.10;;;;;;466878;254;1091;-45
2021/03/23 11:26:44;;;;;;;;;;;21.70;32.30;;;;;;466960;254;1435;-45
2021/03/23 11:28:42;;;;;;;;;;;21.30;33.00;;;;;;464010;255;2222;-45
2021/03/23 11:30:43;;;;;;;;;;;20.80;33.80;;;;;;466989;253;2200;-45
2021/03/23 11:32:45;;;;;;;;;;;20.50;34.40;;;;;;468842;253;1351;-45
2021/03/23 11:34:46;;;;;;;;;;;20.30;34.80;;;;;;466701;252;1166;-45
2021/03/23 11:36:47;;;;;;;;;;;20.10;35.00;;;;;;467873;253;1216;-45
2021/03/23 11:38:49;;;;;;;;;;;20.00;35.40;;;;;;465938;253;1191;-45
2021/03/23 11:40:50;;;;;;;;;;;19.80;35.50;;;;;;466846;253;1265;-45
2021/03/23 11:42:52;;;;;;;;;;;19.80;35.70;;;;;;466862;254;1278;-45
2021/03/23 11:44:52;;;;;;;;;;;19.70;35.90;;;;;;463774;254;1356;-45
2021/03/23 11:46:56;;;;;;;;;;;19.60;36.00;;;;;;471605;250;1122;-45
2021/03/23 11:48:56;;;;;;;;;;;19.60;36.00;;;;;;471684;251;1338;-45
2021/03/23 11:50:57;;;;;;;;;;;19.60;36.10;;;;;;467031;252;2161;-45
2021/03/23 11:52:59;;;;;;;;;;;19.50;36.10;;;;;;468577;253;1195;-45
2021/03/23 11:55:03;;;;;;;;;;;19.50;36.20;;;;;;466635;252;1145;-45
2021/03/23 11:57:01;;;;;;;;;;;19.50;36.20;;;;;;467855;253;2149;-45